sensor_id;sensor_type;location;lat;lon;timestamp;pressure;altitude;pressure_sealevel;temperature;humidity
70445;BME280;57902;49.638;11.070;2023-04-16T00:01:31;98054.19;;;6.88;100.00
70445;BME280;57902;49.638;11.070;2023-04-16T00:03:58;98051.59;;;6.90;100.00
70445;BME280;57902;49.638;11.070;2023-04-16T00:06:25;98050.69;;;6.92;100.00
70445;BME280;57902;49.638;11.070;2023-04-16T00:08:52;98052.44;;;6.92;100.00
70445;BME280;57902;49.638;11.070;2023-04-16T00:11:19;98049.97;;;6.87;100.00
70445;BME280;57902;49.638;11.070;2023-04-16T00:13:46;98049.97;;;6.84;100.00
70445;BME280;57902;49.638;11.070;2023-04-16T00:16:12;98055.13;;;6.82;100.00
70445;BME280;57902;49.638;11.070;2023-04-16T00:18:39;98050.97;;;6.78;100.00
70445;BME280;57902;49.638;11.070;2023-04-16T00:21:06;98055.16;;;6.81;100.00
70445;BME280;57902;49.638;11.070;2023-04-16T00:26:38;98056.84;;;6.83;100.00
70445;BME280;57902;49.638;11.070;2023-04-16T00:32:59;98055.06;;;6.86;100.00
70445;BME280;57902;49.638;11.070;2023-04-16T00:38:50;98055.94;;;6.86;100.00
70445;BME280;57902;49.638;11.070;2023-04-16T00:41:17;98053.41;;;6.85;100.00
70445;BME280;57902;49.638;11.070;2023-04-16T00:43:58;98051.72;;;6.83;100.00
70445;BME280;57902;49.638;11.070;2023-04-16T00:46:34;98055.06;;;6.89;100.00
70445;BME280;57902;49.638;11.070;2023-04-16T00:49:16;98056.72;;;6.90;100.00
70445;BME280;57902;49.638;11.070;2023-04-16T00:52:14;98049.97;;;6.87;100.00
70445;BME280;57902;49.638;11.070;2023-04-16T00:58:47;98047.41;;;6.84;100.00
70445;BME280;57902;49.638;11.070;2023-04-16T01:12:52;98049.06;;;6.88;100.00
70445;BME280;57902;49.638;11.070;2023-04-16T01:15:40;98054.19;;;6.88;100.00
70445;BME280;57902;49.638;11.070;2023-04-16T01:26:49;98050.91;;;6.81;100.00
70445;BME280;57902;49.638;11.070;2023-04-16T01:29:47;98053.53;;;6.78;100.00
70445;BME280;57902;49.638;11.070;2023-04-16T01:36:22;98052.56;;;6.82;100.00
70445;BME280;57902;49.638;11.070;2023-04-16T01:39:05;98056.84;;;6.83;100.00
70445;BME280;57902;49.638;11.070;2023-04-16T01:41:43;98064.59;;;6.80;100.00
70445;BME280;57902;49.638;11.070;2023-04-16T01:44:19;98053.56;;;6.75;100.00
70445;BME280;57902;49.638;11.070;2023-04-16T01:46:51;98059.53;;;6.76;100.00
70445;BME280;57902;49.638;11.070;2023-04-16T01:49:22;98060.34;;;6.78;100.00
70445;BME280;57902;49.638;11.070;2023-04-16T01:51:53;98057.78;;;6.78;100.00
70445;BME280;57902;49.638;11.070;2023-04-16T01:54:31;98060.31;;;6.79;100.00
70445;BME280;57902;49.638;11.070;2023-04-16T01:56:59;98062.06;;;6.79;100.00
70445;BME280;57902;49.638;11.070;2023-04-16T01:59:30;98059.44;;;6.82;100.00
70445;BME280;57902;49.638;11.070;2023-04-16T02:02:07;98066.28;;;6.81;100.00
70445;BME280;57902;49.638;11.070;2023-04-16T02:04:49;98054.38;;;6.79;100.00
70445;BME280;57902;49.638;11.070;2023-04-16T02:07:23;98055.97;;;6.85;100.00
70445;BME280;57902;49.638;11.070;2023-04-16T02:13:41;98060.28;;;6.81;100.00
70445;BME280;57902;49.638;11.070;2023-04-16T02:16:44;98058.50;;;6.86;100.00
70445;BME280;57902;49.638;11.070;2023-04-16T02:20:10;98067.09;;;6.83;100.00
70445;BME280;57902;49.638;11.070;2023-04-16T02:23:05;98066.22;;;6.85;100.00
70445;BME280;57902;49.638;11.070;2023-04-16T02:25:54;98060.19;;;6.89;100.00
70445;BME280;57902;49.638;11.070;2023-04-16T02:28:35;98061.94;;;6.85;100.00
70445;BME280;57902;49.638;11.070;2023-04-16T02:31:10;98062.88;;;6.79;100.00
70445;BME280;57902;49.638;11.070;2023-04-16T02:33:57;98062.00;;;6.82;100.00
70445;BME280;57902;49.638;11.070;2023-04-16T02:36:39;98072.16;;;6.87;100.00
70445;BME280;57902;49.638;11.070;2023-04-16T02:39:11;98066.19;;;6.86;100.00
70445;BME280;57902;49.638;11.070;2023-04-16T02:41:49;98066.19;;;6.86;100.00
70445;BME280;57902;49.638;11.070;2023-04-16T02:44:28;98075.56;;;6.89;100.00
70445;BME280;57902;49.638;11.070;2023-04-16T02:47:08;98067.00;;;6.88;100.00
70445;BME280;57902;49.638;11.070;2023-04-16T02:49:55;98073.00;;;6.86;100.00
70445;BME280;57902;49.638;11.070;2023-04-16T02:52:27;98073.06;;;6.82;100.00
70445;BME280;57902;49.638;11.070;2023-04-16T02:55:19;98080.81;;;6.79;100.00
70445;BME280;57902;49.638;11.070;2023-04-16T02:58:00;98073.97;;;6.81;100.00
70445;BME280;57902;49.638;11.070;2023-04-16T03:00:50;98079.91;;;6.83;100.00
70445;BME280;57902;49.638;11.070;2023-04-16T03:03:22;98075.69;;;6.79;100.00
70445;BME280;57902;49.638;11.070;2023-04-16T03:06:11;98077.38;;;6.82;100.00
70445;BME280;57902;49.638;11.070;2023-04-16T03:09:15;98074.84;;;6.79;100.00
70445;BME280;57902;49.638;11.070;2023-04-16T03:12:14;98080.00;;;6.77;100.00
70445;BME280;57902;49.638;11.070;2023-04-16T03:17:58;98084.31;;;6.77;100.00
70445;BME280;57902;49.638;11.070;2023-04-16T03:20:52;98082.59;;;6.76;100.00
70445;BME280;57902;49.638;11.070;2023-04-16T03:23:49;98084.28;;;6.78;100.00
70445;BME280;57902;49.638;11.070;2023-04-16T03:26:18;98088.50;;;6.79;100.00
70445;BME280;57902;49.638;11.070;2023-04-16T03:28:44;98091.09;;;6.78;100.00
70445;BME280;57902;49.638;11.070;2023-04-16T03:31:11;98089.41;;;6.78;100.00
70445;BME280;57902;49.638;11.070;2023-04-16T03:33:38;98093.66;;;6.78;100.00
70445;BME280;57902;49.638;11.070;2023-04-16T03:36:07;98091.91;;;6.81;100.00
70445;BME280;57902;49.638;11.070;2023-04-16T03:38:49;98096.06;;;6.86;100.00
70445;BME280;57902;49.638;11.070;2023-04-16T03:41:18;98094.47;;;6.81;100.00
70445;BME280;57902;49.638;11.070;2023-04-16T03:43:47;98097.88;;;6.80;100.00
70445;BME280;57902;49.638;11.070;2023-04-16T03:46:22;98094.47;;;6.81;100.00
70445;BME280;57902;49.638;11.070;2023-04-16T03:48:49;98099.59;;;6.81;100.00
70445;BME280;57902;49.638;11.070;2023-04-16T03:51:15;98103.81;;;6.82;100.00
70445;BME280;57902;49.638;11.070;2023-04-16T03:53:45;98099.59;;;6.81;100.00
70445;BME280;57902;49.638;11.070;2023-04-16T03:56:12;98097.88;;;6.82;100.00
70445;BME280;57902;49.638;11.070;2023-04-16T03:58:39;98101.28;;;6.81;100.00
70445;BME280;57902;49.638;11.070;2023-04-16T04:01:17;98095.34;;;6.79;100.00
70445;BME280;57902;49.638;11.070;2023-04-16T04:03:56;98100.47;;;6.79;100.00
70445;BME280;57902;49.638;11.070;2023-04-16T04:06:55;98099.56;;;6.83;100.00
70445;BME280;57902;49.638;11.070;2023-04-16T04:09:24;98103.00;;;6.80;100.00
70445;BME280;57902;49.638;11.070;2023-04-16T04:12:02;98105.56;;;6.80;100.00
70445;BME280;57902;49.638;11.070;2023-04-16T04:14:43;98109.00;;;6.79;100.00
70445;BME280;57902;49.638;11.070;2023-04-16T04:17:14;98106.38;;;6.82;100.00
70445;BME280;57902;49.638;11.070;2023-04-16T04:19:41;98110.72;;;6.79;100.00
70445;BME280;57902;49.638;11.070;2023-04-16T04:22:28;98109.91;;;6.77;100.00
70445;BME280;57902;49.638;11.070;2023-04-16T04:24:56;98112.47;;;6.77;100.00
70445;BME280;57902;49.638;11.070;2023-04-16T04:27:44;98110.81;;;6.74;100.00
70445;BME280;57902;49.638;11.070;2023-04-16T04:33:58;98120.16;;;6.77;100.00
70445;BME280;57902;49.638;11.070;2023-04-16T04:37:19;98126.91;;;6.81;100.00
70445;BME280;57902;49.638;11.070;2023-04-16T04:40:08;98125.25;;;6.78;100.00
70445;BME280;57902;49.638;11.070;2023-04-16T04:43:01;98120.94;;;6.80;100.00
70445;BME280;57902;49.638;11.070;2023-04-16T04:49:34;98133.66;;;6.87;100.00
70445;BME280;57902;49.638;11.070;2023-04-16T04:52:20;98137.03;;;6.90;100.00
70445;BME280;57902;49.638;11.070;2023-04-16T04:54:51;98132.69;;;6.92;100.00
70445;BME280;57902;49.638;11.070;2023-04-16T04:57:40;98140.28;;;6.98;100.00
70445;BME280;57902;49.638;11.070;2023-04-16T05:00:31;98145.44;;;6.97;100.00
70445;BME280;57902;49.638;11.070;2023-04-16T05:03:09;98144.50;;;7.01;100.00
70445;BME280;57902;49.638;11.070;2023-04-16T05:05:47;98142.72;;;7.05;100.00
70445;BME280;57902;49.638;11.070;2023-04-16T05:08:23;98145.34;;;7.01;100.00
70445;BME280;57902;49.638;11.070;2023-04-16T05:10:52;98152.19;;;7.01;100.00
70445;BME280;57902;49.638;11.070;2023-04-16T05:13:20;98153.91;;;7.02;100.00
70445;BME280;57902;49.638;11.070;2023-04-16T05:15:48;98158.97;;;7.05;100.00
70445;BME280;57902;49.638;11.070;2023-04-16T05:18:21;98160.75;;;7.00;100.00
70445;BME280;57902;49.638;11.070;2023-04-16T05:21:02;98160.75;;;7.00;100.00
70445;BME280;57902;49.638;11.070;2023-04-16T05:23:33;98159.00;;;7.04;100.00
70445;BME280;57902;49.638;11.070;2023-04-16T05:26:02;98164.88;;;7.09;100.00
70445;BME280;57902;49.638;11.070;2023-04-16T05:28:33;98167.38;;;7.12;100.00
70445;BME280;57902;49.638;11.070;2023-04-16T05:31:01;98175.09;;;7.10;100.00
70445;BME280;57902;49.638;11.070;2023-04-16T05:33:32;98176.78;;;7.13;100.00
70445;BME280;57902;49.638;11.070;2023-04-16T05:36:04;98178.47;;;7.14;100.00
70445;BME280;57902;49.638;11.070;2023-04-16T05:38:40;98173.41;;;7.11;100.00
70445;BME280;57902;49.638;11.070;2023-04-16T05:41:07;98177.56;;;7.15;100.00
70445;BME280;57902;49.638;11.070;2023-04-16T05:43:33;98177.59;;;7.16;100.00
70445;BME280;57902;49.638;11.070;2023-04-16T05:46:00;98180.88;;;7.23;100.00
70445;BME280;57902;49.638;11.070;2023-04-16T05:48:26;98181.66;;;7.25;100.00
70445;BME280;57902;49.638;11.070;2023-04-16T05:50:53;98191.09;;;7.25;100.00
70445;BME280;57902;49.638;11.070;2023-04-16T05:53:19;98191.94;;;7.27;100.00
70445;BME280;57902;49.638;11.070;2023-04-16T05:55:45;98189.22;;;7.34;100.00
70445;BME280;57902;49.638;11.070;2023-04-16T05:58:12;98197.78;;;7.33;100.00
70445;BME280;57902;49.638;11.070;2023-04-16T06:00:38;98194.25;;;7.39;100.00
70445;BME280;57902;49.638;11.070;2023-04-16T06:03:05;98199.34;;;7.41;100.00
70445;BME280;57902;49.638;11.070;2023-04-16T06:05:32;98201.88;;;7.44;100.00
70445;BME280;57902;49.638;11.070;2023-04-16T06:07:59;98200.09;;;7.47;100.00
70445;BME280;57902;49.638;11.070;2023-04-16T06:10:25;98206.03;;;7.49;100.00
70445;BME280;57902;49.638;11.070;2023-04-16T06:12:52;98205.22;;;7.47;100.00
70445;BME280;57902;49.638;11.070;2023-04-16T06:15:18;98209.38;;;7.53;100.00
70445;BME280;57902;49.638;11.070;2023-04-16T06:17:45;98207.56;;;7.60;100.00
70445;BME280;57902;49.638;11.070;2023-04-16T06:20:11;98207.56;;;7.60;100.00
70445;BME280;57902;49.638;11.070;2023-04-16T06:22:38;98215.16;;;7.64;100.00
70445;BME280;57902;49.638;11.070;2023-04-16T06:25:05;98214.50;;;7.53;100.00
70445;BME280;57902;49.638;11.070;2023-04-16T06:27:31;98214.44;;;7.58;100.00
70445;BME280;57902;49.638;11.070;2023-04-16T06:29:58;98212.66;;;7.61;100.00
70445;BME280;57902;49.638;11.070;2023-04-16T06:32:24;98221.28;;;7.57;100.00
70445;BME280;57902;49.638;11.070;2023-04-16T06:34:51;98219.59;;;7.58;100.00
70445;BME280;57902;49.638;11.070;2023-04-16T06:37:17;98223.75;;;7.62;100.00
70445;BME280;57902;49.638;11.070;2023-04-16T06:39:43;98223.69;;;7.65;100.00
70445;BME280;57902;49.638;11.070;2023-04-16T06:42:10;98230.50;;;7.67;100.00
70445;BME280;57902;49.638;11.070;2023-04-16T06:44:36;98238.81;;;7.80;100.00
70445;BME280;57902;49.638;11.070;2023-04-16T06:47:03;98248.22;;;7.81;100.00
70445;BME280;57902;49.638;11.070;2023-04-16T06:49:30;98244.84;;;7.78;100.00
70445;BME280;57902;49.638;11.070;2023-04-16T06:51:56;98235.47;;;7.77;100.00
70445;BME280;57902;49.638;11.070;2023-04-16T06:54:23;98245.75;;;7.75;100.00
70445;BME280;57902;49.638;11.070;2023-04-16T06:56:49;98237.25;;;7.73;100.00
70445;BME280;57902;49.638;11.070;2023-04-16T06:59:16;98250.88;;;7.77;100.00
70445;BME280;57902;49.638;11.070;2023-04-16T07:01:42;98254.22;;;7.80;100.00
70445;BME280;57902;49.638;11.070;2023-04-16T07:04:08;98252.69;;;7.70;100.00
70445;BME280;57902;49.638;11.070;2023-04-16T07:06:36;98254.25;;;7.79;100.00
70445;BME280;57902;49.638;11.070;2023-04-16T07:09:02;98255.78;;;7.87;100.00
70445;BME280;57902;49.638;11.070;2023-04-16T07:11:29;98254.84;;;7.93;100.00
70445;BME280;57902;49.638;11.070;2023-04-16T07:13:55;98248.75;;;7.99;100.00
70445;BME280;57902;49.638;11.070;2023-04-16T07:16:23;98255.53;;;8.00;100.00
70445;BME280;57902;49.638;11.070;2023-04-16T07:18:49;98251.16;;;8.06;100.00
70445;BME280;57902;49.638;11.070;2023-04-16T07:21:16;98254.47;;;8.10;100.00
70445;BME280;57902;49.638;11.070;2023-04-16T07:23:42;98252.75;;;8.12;100.00
70445;BME280;57902;49.638;11.070;2023-04-16T07:26:08;98256.84;;;8.21;100.00
70445;BME280;57902;49.638;11.070;2023-04-16T07:28:36;98255.81;;;8.30;100.00
70445;BME280;57902;49.638;11.070;2023-04-16T07:31:03;98257.41;;;8.34;100.00
70445;BME280;57902;49.638;11.070;2023-04-16T07:33:31;98263.28;;;8.40;100.00
70445;BME280;57902;49.638;11.070;2023-04-16T07:35:58;98264.88;;;8.48;100.00
70445;BME280;57902;49.638;11.070;2023-04-16T07:38:24;98264.91;;;8.46;100.00
70445;BME280;57902;49.638;11.070;2023-04-16T07:40:50;98262.22;;;8.52;100.00
70445;BME280;57902;49.638;11.070;2023-04-16T07:43:18;98265.56;;;8.54;100.00
70445;BME280;57902;49.638;11.070;2023-04-16T07:45:44;98261.31;;;8.55;100.00
70445;BME280;57902;49.638;11.070;2023-04-16T07:48:11;98271.53;;;8.56;100.00
70445;BME280;57902;49.638;11.070;2023-04-16T07:50:37;98273.91;;;8.66;100.00
70445;BME280;57902;49.638;11.070;2023-04-16T07:53:04;98266.16;;;8.67;100.00
70445;BME280;57902;49.638;11.070;2023-04-16T07:55:32;98273.75;;;8.72;100.00
70445;BME280;57902;49.638;11.070;2023-04-16T07:57:59;98269.34;;;8.79;100.00
70445;BME280;57902;49.638;11.070;2023-04-16T08:00:25;98267.56;;;8.81;100.00
70445;BME280;57902;49.638;11.070;2023-04-16T08:02:52;98273.28;;;8.93;100.00
70445;BME280;57902;49.638;11.070;2023-04-16T08:05:18;98266.25;;;9.02;100.00
70445;BME280;57902;49.638;11.070;2023-04-16T08:07:45;98277.19;;;9.10;100.00
70445;BME280;57902;49.638;11.070;2023-04-16T08:10:11;98277.81;;;9.20;100.00
70445;BME280;57902;49.638;11.070;2023-04-16T08:12:39;98273.38;;;9.26;100.00
70445;BME280;57902;49.638;11.070;2023-04-16T08:15:06;98277.53;;;9.31;100.00
70445;BME280;57902;49.638;11.070;2023-04-16T08:17:33;98282.38;;;9.44;100.00
70445;BME280;57902;49.638;11.070;2023-04-16T08:20:00;98282.56;;;9.37;100.00
70445;BME280;57902;49.638;11.070;2023-04-16T08:22:27;98291.06;;;9.39;100.00
70445;BME280;57902;49.638;11.070;2023-04-16T08:24:53;98289.53;;;9.32;100.00
70445;BME280;57902;49.638;11.070;2023-04-16T08:27:19;98293.69;;;9.37;100.00
70445;BME280;57902;49.638;11.070;2023-04-16T08:29:46;98295.38;;;9.38;100.00
70445;BME280;57902;49.638;11.070;2023-04-16T08:32:13;98304.03;;;9.69;100.00
70445;BME280;57902;49.638;11.070;2023-04-16T08:34:40;98308.91;;;9.81;100.00
70445;BME280;57902;49.638;11.070;2023-04-16T08:37:07;98307.03;;;9.86;100.00
70445;BME280;57902;49.638;11.070;2023-04-16T08:39:33;98317.16;;;9.92;100.00
70445;BME280;57902;49.638;11.070;2023-04-16T08:42:03;98314.31;;;10.03;100.00
70445;BME280;57902;49.638;11.070;2023-04-16T08:44:33;98323.53;;;10.12;100.00
70445;BME280;57902;49.638;11.070;2023-04-16T08:47:00;98320.00;;;10.16;100.00
70445;BME280;57902;49.638;11.070;2023-04-16T08:49:28;98323.00;;;10.30;100.00
70445;BME280;57902;49.638;11.070;2023-04-16T08:51:55;98328.50;;;10.18;100.00
70445;BME280;57902;49.638;11.070;2023-04-16T08:54:37;98328.31;;;9.93;100.00
70445;BME280;57902;49.638;11.070;2023-04-16T08:57:09;98327.09;;;10.06;100.00
70445;BME280;57902;49.638;11.070;2023-04-16T08:59:37;98335.19;;;10.25;100.00
70445;BME280;57902;49.638;11.070;2023-04-16T09:02:04;98334.25;;;10.28;100.00
70445;BME280;57902;49.638;11.070;2023-04-16T09:04:32;98331.88;;;10.53;100.00
70445;BME280;57902;49.638;11.070;2023-04-16T09:07:01;98335.31;;;10.52;100.00
70445;BME280;57902;49.638;11.070;2023-04-16T09:09:30;98340.56;;;10.79;100.00
70445;BME280;57902;49.638;11.070;2023-04-16T09:11:59;98339.13;;;10.68;96.66
70445;BME280;57902;49.638;11.070;2023-04-16T09:14:26;98345.34;;;10.61;99.68
70445;BME280;57902;49.638;11.070;2023-04-16T09:16:53;98342.63;;;10.67;98.56
70445;BME280;57902;49.638;11.070;2023-04-16T09:19:20;98345.06;;;10.72;97.87
70445;BME280;57902;49.638;11.070;2023-04-16T09:21:48;98347.88;;;10.64;98.57
70445;BME280;57902;49.638;11.070;2023-04-16T09:24:15;98350.78;;;10.52;99.16
70445;BME280;57902;49.638;11.070;2023-04-16T09:26:41;98352.94;;;10.67;99.99
70445;BME280;57902;49.638;11.070;2023-04-16T09:29:11;98351.47;;;10.59;99.90
70445;BME280;57902;49.638;11.070;2023-04-16T09:31:37;98356.41;;;10.66;100.00
70445;BME280;57902;49.638;11.070;2023-04-16T09:34:05;98359.78;;;10.68;99.07
70445;BME280;57902;49.638;11.070;2023-04-16T09:36:33;98358.47;;;10.22;98.64
70445;BME280;57902;49.638;11.070;2023-04-16T09:39:00;98359.16;;;10.27;98.92
70445;BME280;57902;49.638;11.070;2023-04-16T09:41:30;98364.72;;;10.45;97.57
70445;BME280;57902;49.638;11.070;2023-04-16T09:44:02;98367.81;;;10.58;95.30
70445;BME280;57902;49.638;11.070;2023-04-16T09:46:33;98367.09;;;10.53;97.93
70445;BME280;57902;49.638;11.070;2023-04-16T09:49:16;98369.72;;;10.51;97.02
70445;BME280;57902;49.638;11.070;2023-04-16T09:51:46;98378.59;;;10.41;94.18
70445;BME280;57902;49.638;11.070;2023-04-16T09:54:13;98371.03;;;10.33;96.70
70445;BME280;57902;49.638;11.070;2023-04-16T09:56:42;98371.41;;;10.19;94.11
70445;BME280;57902;49.638;11.070;2023-04-16T09:59:19;98374.84;;;10.20;96.53
70445;BME280;57902;49.638;11.070;2023-04-16T10:01:46;98379.06;;;10.22;92.33
70445;BME280;57902;49.638;11.070;2023-04-16T10:04:17;98370.50;;;10.20;95.70
70445;BME280;57902;49.638;11.070;2023-04-16T10:06:44;98382.25;;;10.30;96.42
70445;BME280;57902;49.638;11.070;2023-04-16T10:09:31;98388.22;;;10.34;95.25
70445;BME280;57902;49.638;11.070;2023-04-16T10:11:57;98386.41;;;10.38;98.36
70445;BME280;57902;49.638;11.070;2023-04-16T10:14:24;98384.59;;;10.07;97.63
70445;BME280;57902;49.638;11.070;2023-04-16T10:16:51;98394.03;;;10.08;98.41
70445;BME280;57902;49.638;11.070;2023-04-16T10:19:19;98391.13;;;10.20;100.00
70445;BME280;57902;49.638;11.070;2023-04-16T10:21:46;98390.59;;;10.09;100.00
70445;BME280;57902;49.638;11.070;2023-04-16T10:24:13;98396.59;;;9.73;100.00
70445;BME280;57902;49.638;11.070;2023-04-16T10:26:42;98399.25;;;9.70;100.00
70445;BME280;57902;49.638;11.070;2023-04-16T10:29:11;98403.41;;;9.76;100.00
70445;BME280;57902;49.638;11.070;2023-04-16T10:31:39;98405.50;;;9.96;100.00
70445;BME280;57902;49.638;11.070;2023-04-16T10:34:08;98404.34;;;9.72;100.00
70445;BME280;57902;49.638;11.070;2023-04-16T10:36:37;98405.81;;;9.82;100.00
70445;BME280;57902;49.638;11.070;2023-04-16T10:39:09;98412.38;;;9.95;100.00
70445;BME280;57902;49.638;11.070;2023-04-16T10:41:38;98401.25;;;9.93;100.00
70445;BME280;57902;49.638;11.070;2023-04-16T10:44:07;98404.59;;;9.98;100.00
70445;BME280;57902;49.638;11.070;2023-04-16T10:46:41;98411.19;;;10.09;100.00
70445;BME280;57902;49.638;11.070;2023-04-16T10:49:21;98410.06;;;9.85;100.00
70445;BME280;57902;49.638;11.070;2023-04-16T10:51:55;98414.97;;;9.59;100.00
70445;BME280;57902;49.638;11.070;2023-04-16T10:54:26;98411.44;;;9.98;100.00
70445;BME280;57902;49.638;11.070;2023-04-16T10:57:02;98411.97;;;10.11;99.52
70445;BME280;57902;49.638;11.070;2023-04-16T10:59:31;98416.94;;;10.19;95.91
70445;BME280;57902;49.638;11.070;2023-04-16T11:02:05;98415.56;;;10.05;95.87
70445;BME280;57902;49.638;11.070;2023-04-16T11:04:34;98424.00;;;10.12;97.32
70445;BME280;57902;49.638;11.070;2023-04-16T11:07:05;98416.84;;;10.22;99.35
70445;BME280;57902;49.638;11.070;2023-04-16T11:09:55;98419.03;;;10.39;97.62
70445;BME280;57902;49.638;11.070;2023-04-16T11:12:31;98427.63;;;10.38;98.16
70445;BME280;57902;49.638;11.070;2023-04-16T11:15:00;98423.69;;;10.23;97.80
70445;BME280;57902;49.638;11.070;2023-04-16T11:17:30;98431.56;;;10.18;99.18
70445;BME280;57902;49.638;11.070;2023-04-16T11:19:57;98425.59;;;10.16;96.06
70445;BME280;57902;49.638;11.070;2023-04-16T11:22:24;98433.25;;;10.19;96.74
70445;BME280;57902;49.638;11.070;2023-04-16T11:24:55;98429.06;;;10.15;98.41
70445;BME280;57902;49.638;11.070;2023-04-16T11:27:22;98439.69;;;10.01;100.00
70445;BME280;57902;49.638;11.070;2023-04-16T11:32:25;98435.56;;;9.95;100.00
70445;BME280;57902;49.638;11.070;2023-04-16T11:34:52;98429.31;;;10.04;100.00
70445;BME280;57902;49.638;11.070;2023-04-16T11:37:20;98440.72;;;9.95;100.00
70445;BME280;57902;49.638;11.070;2023-04-16T11:39:50;98443.97;;;10.02;100.00
70445;BME280;57902;49.638;11.070;2023-04-16T11:42:19;98441.69;;;10.24;100.00
70445;BME280;57902;49.638;11.070;2023-04-16T11:44:55;98445.59;;;10.41;97.77
70445;BME280;57902;49.638;11.070;2023-04-16T11:47:22;98436.00;;;10.46;97.03
70445;BME280;57902;49.638;11.070;2023-04-16T11:49:50;98446.38;;;10.44;99.79
70445;BME280;57902;49.638;11.070;2023-04-16T11:52:32;98445.06;;;10.61;98.48
70445;BME280;57902;49.638;11.070;2023-04-16T11:54:58;98432.81;;;10.69;96.72
70445;BME280;57902;49.638;11.070;2023-04-16T11:57:29;98439.66;;;10.70;98.10
70445;BME280;57902;49.638;11.070;2023-04-16T11:59:57;98441.16;;;10.77;97.73
70445;BME280;57902;49.638;11.070;2023-04-16T12:02:44;98449.03;;;11.04;98.06
70445;BME280;57902;49.638;11.070;2023-04-16T12:05:30;98448.72;;;10.83;95.98
70445;BME280;57902;49.638;11.070;2023-04-16T12:07:57;98450.47;;;11.14;94.22
70445;BME280;57902;49.638;11.070;2023-04-16T12:10:25;98446.97;;;11.15;95.99
70445;BME280;57902;49.638;11.070;2023-04-16T12:12:52;98447.47;;;11.28;94.14
70445;BME280;57902;49.638;11.070;2023-04-16T12:15:18;98448.91;;;11.37;94.02
70445;BME280;57902;49.638;11.070;2023-04-16T12:17:45;98441.22;;;11.35;92.98
70445;BME280;57902;49.638;11.070;2023-04-16T12:20:12;98455.25;;;11.55;92.50
70445;BME280;57902;49.638;11.070;2023-04-16T12:22:45;98447.19;;;11.66;91.64
70445;BME280;57902;49.638;11.070;2023-04-16T12:25:14;98441.13;;;11.95;90.18
70445;BME280;57902;49.638;11.070;2023-04-16T12:27:47;98446.81;;;12.05;85.18
70445;BME280;57902;49.638;11.070;2023-04-16T12:30:20;98442.69;;;12.26;87.11
70445;BME280;57902;49.638;11.070;2023-04-16T12:32:50;98450.22;;;12.32;86.46
70445;BME280;57902;49.638;11.070;2023-04-16T12:35:30;98448.00;;;11.95;87.87
70445;BME280;57902;49.638;11.070;2023-04-16T12:37:58;98450.22;;;12.32;84.44
70445;BME280;57902;49.638;11.070;2023-04-16T12:40:25;98445.00;;;12.59;81.90
70445;BME280;57902;49.638;11.070;2023-04-16T12:42:52;98443.41;;;12.55;81.94
70445;BME280;57902;49.638;11.070;2023-04-16T12:45:19;98439.72;;;12.62;81.99
70445;BME280;57902;49.638;11.070;2023-04-16T12:47:46;98443.78;;;12.19;80.79
70445;BME280;57902;49.638;11.070;2023-04-16T12:50:12;98439.75;;;12.60;79.53
70445;BME280;57902;49.638;11.070;2023-04-16T12:52:39;98437.25;;;12.83;78.13
70445;BME280;57902;49.638;11.070;2023-04-16T12:55:06;98444.66;;;12.68;80.52
70445;BME280;57902;49.638;11.070;2023-04-16T12:57:32;98442.13;;;12.67;81.78
70445;BME280;57902;49.638;11.070;2023-04-16T12:59:58;98441.00;;;12.98;79.13
70445;BME280;57902;49.638;11.070;2023-04-16T13:02:26;98447.22;;;13.17;77.30
70445;BME280;57902;49.638;11.070;2023-04-16T13:04:53;98450.06;;;13.09;76.43
70445;BME280;57902;49.638;11.070;2023-04-16T13:07:19;98441.53;;;13.07;78.30
70445;BME280;57902;49.638;11.070;2023-04-16T13:09:47;98441.81;;;13.00;78.60
70445;BME280;57902;49.638;11.070;2023-04-16T13:12:14;98439.78;;;12.84;80.43
70445;BME280;57902;49.638;11.070;2023-04-16T13:14:41;98435.88;;;12.72;80.46
70445;BME280;57902;49.638;11.070;2023-04-16T13:17:10;98431.78;;;12.67;79.63
70445;BME280;57902;49.638;11.070;2023-04-16T13:19:36;98436.47;;;12.57;80.79
70445;BME280;57902;49.638;11.070;2023-04-16T13:22:03;98436.31;;;12.36;82.67
70445;BME280;57902;49.638;11.070;2023-04-16T13:24:29;98445.00;;;12.08;85.19
70445;BME280;57902;49.638;11.070;2023-04-16T13:26:55;98441.53;;;12.08;83.43
70445;BME280;57902;49.638;11.070;2023-04-16T13:29:22;98441.84;;;11.99;85.56
70445;BME280;57902;49.638;11.070;2023-04-16T13:31:48;98446.97;;;12.00;85.46
70445;BME280;57902;49.638;11.070;2023-04-16T13:34:15;98453.06;;;11.98;87.43
70445;BME280;57902;49.638;11.070;2023-04-16T13:36:41;98450.44;;;11.99;87.70
70445;BME280;57902;49.638;11.070;2023-04-16T13:39:08;98446.25;;;11.97;89.36
70445;BME280;57902;49.638;11.070;2023-04-16T13:41:38;98446.28;;;11.95;89.43
70445;BME280;57902;49.638;11.070;2023-04-16T13:44:04;98451.19;;;12.03;88.47
70445;BME280;57902;49.638;11.070;2023-04-16T13:46:31;98453.44;;;11.85;89.38
70445;BME280;57902;49.638;11.070;2023-04-16T13:48:57;98456.47;;;12.00;88.18
70445;BME280;57902;49.638;11.070;2023-04-16T13:51:24;98447.94;;;12.23;86.40
70445;BME280;57902;49.638;11.070;2023-04-16T13:53:53;98445.94;;;12.31;87.03
70445;BME280;57902;49.638;11.070;2023-04-16T13:56:20;98453.19;;;12.47;86.71
70445;BME280;57902;49.638;11.070;2023-04-16T13:58:47;98452.59;;;12.38;87.27
70445;BME280;57902;49.638;11.070;2023-04-16T14:01:13;98457.00;;;12.36;87.52
70445;BME280;57902;49.638;11.070;2023-04-16T14:03:40;98450.72;;;12.43;85.87
70445;BME280;57902;49.638;11.070;2023-04-16T14:06:07;98448.16;;;12.42;84.30
70445;BME280;57902;49.638;11.070;2023-04-16T14:08:33;98455.56;;;12.53;85.37